• Join FlightAware (Why Join?)
  • Login
  • US Flag 
Rudolph Flight #1: Arrived! 
12:36AM EST


 

Airport Tracker/Info


-or-


 

Live Flight TrackerFlight Track Log ✈ FLG3776 ✈ 21-Apr-2013 ✈ KMSP - KAZO

Flight Track Log - Related Links

Times and Time Zones

All times are in EDT time to prevent confusion due to time zone crossing. See the FLG3776 flight status page for this flight to view local times or setup timezone preferences in your user account.

Time Position Orientation Groundspeed Altitude Reporting Facility
EDT Latitude Longitude Course Direction KTS MPH feet Rate Location/Type
09:06PM 44.9103 -93.2308 117° Southeast 178 205 2,200  Level FAA TRACON SMA TRACON (SMA)
09:06PM 44.9311 -93.2264 North 193 222 2,800 1,920 Climbing FAA TRACON SMA TRACON (SMA)
09:07PM 44.9489 -93.2208 12° North 212 244 3,500 2,220 Climbing FAA TRACON SMA TRACON (SMA)
09:07PM 44.9628 -93.2006 46° Northeast 237 273 4,300 1,920 Climbing FAA TRACON SMA TRACON (SMA)
09:07PM 44.9764 -93.1658 61° Northeast 258 297 4,800 1,800 Climbing FAA TRACON SMA TRACON (SMA)
09:08PM 44.9878 -93.1347 63° Northeast 283 326 5,500 1,920 Climbing FAA TRACON SMA TRACON (SMA)
09:08PM 44.9922 -93.1000 80° East 299 344 6,100 2,520 Climbing FAA TRACON SMA TRACON (SMA)
09:08PM 44.9850 -93.0569 103° East 299 344 7,200 2,820 Climbing FAA TRACON SMA TRACON (SMA)
09:09PM 44.7066 -92.6394 118° Southeast  Level Estimated
09:09PM 44.9719 -93.0278 122° Southeast 291 335 8,000  Level FAA TRACON SMA TRACON (SMA)
09:09PM 44.9575 -92.9983 125° Southeast 293 337 8,800 2,520 Climbing FAA TRACON SMA TRACON (SMA)
09:09PM 44.9392 -92.9614 125° Southeast 299 344 9,700 2,520 Climbing FAA TRACON SMA TRACON (SMA)
09:10PM 44.6448 -92.5076 123° Southeast  Level FlightAware Approximate
09:10PM 44.9244 -92.9311 124° Southeast 303 349 10,500  Level FAA TRACON SMA TRACON (SMA)
09:10PM 44.9092 -92.9003 125° Southeast 309 356 10,800 420 Climbing FAA TRACON SMA TRACON (SMA)
09:10PM 44.8883 -92.8586 125° Southeast 330 380 10,800 720 Level FAA TRACON SMA TRACON (SMA)
09:11PM 44.6048 -92.3506 117° Southeast  Level FlightAware Approximate
09:11PM 44.8708 -92.8233 125° Southeast 349 402 11,300  Level FAA TRACON SMA TRACON (SMA)
09:11PM 44.8531 -92.7878 125° Southeast 359 413 11,900 1,800 Climbing FAA TRACON SMA TRACON (SMA)
09:11PM 44.8350 -92.7522 126° Southeast 362 417 12,500 2,100 Climbing FAA TRACON SMA TRACON (SMA)
09:12PM 44.8133 -92.7069 124° Southeast 364 419 13,300 2,220 Climbing FAA TRACON SMA TRACON (SMA)
09:12PM 44.7944 -92.6708 126° Southeast 367 422 14,000 1,860 Climbing FAA TRACON SMA TRACON (SMA)
09:12PM 44.7764 -92.6342 125° Southeast 370 426 14,600 1,860 Climbing FAA TRACON SMA TRACON (SMA)
09:13PM 44.7539 -92.5875 124° Southeast 374 430 15,300 1,800 Climbing FAA TRACON SMA TRACON (SMA)
09:13PM 44.7344 -92.5506 127° Southeast 380 437 15,800 1,800 Climbing FAA TRACON SMA TRACON (SMA)
09:13PM 44.7161 -92.5128 124° Southeast 381 438 16,500 1,920 Climbing FAA TRACON SMA TRACON (SMA)
09:14PM 44.6928 -92.4658 125° Southeast 381 438 17,100 1,620 Climbing FAA TRACON SMA TRACON (SMA)
09:14PM 44.6736 -92.4281 125° Southeast 384 442 17,600 1,500 Climbing FAA TRACON SMA TRACON (SMA)
09:14PM 44.6542 -92.3903 126° Southeast 388 447 18,100 1,800 Climbing FAA TRACON SMA TRACON (SMA)
09:15PM 44.6314 -92.3419 124° Southeast 386 444 18,800 1,800 Climbing FAA TRACON SMA TRACON (SMA)
09:15PM 44.6119 -92.3042 126° Southeast 389 448 19,300 1,440 Climbing FAA TRACON SMA TRACON (SMA)
09:15PM 44.5931 -92.2658 125° Southeast 388 447 19,800 1,320 Climbing FAA TRACON SMA TRACON (SMA)
09:16PM 44.5689 -92.2175 125° Southeast 391 450 20,200 1,380 Climbing FAA TRACON SMA TRACON (SMA)
09:16PM 44.5506 -92.1778 123° Southeast 395 455 20,700 1,500 Climbing FAA TRACON SMA TRACON (SMA)
09:16PM 44.5308 -92.1394 126° Southeast 395 455 21,200 1,500 Climbing FAA TRACON SMA TRACON (SMA)
09:17PM 44.5058 -92.0911 126° Southeast 398 458 21,700 1,200 Climbing FAA TRACON SMA TRACON (SMA)
09:17PM 44.4861 -92.0519 125° Southeast 399 459 22,000 1,020 Climbing FAA TRACON SMA TRACON (SMA)
09:17PM 44.4647 -92.0139 128° Southeast 401 461 22,400 900 Climbing FAA TRACON SMA TRACON (SMA)
09:18PM 44.4506 -91.9833 123° Southeast 406 467 22,600 900 Climbing FAA TRACON SMA TRACON (SMA)
09:19PM 44.3500 -91.8014 128° Southeast 412 474 24,000 1,020 Climbing Minneapolis Center
09:20PM 44.2961 -91.6581 118° Southeast 418 481 25,100 900 Climbing Minneapolis Center
09:21PM 44.2406 -91.5131 118° Southeast 422 486 25,900 720 Climbing Minneapolis Center
09:22PM 44.1856 -91.3667 118° Southeast 426 490 26,600 480 Climbing Minneapolis Center
09:23PM 44.1247 -91.2111 119° Southeast 434 499 27,000 180 Climbing Minneapolis Center
09:24PM 44.0667 -91.0592 118° Southeast 442 509 27,000  Level Minneapolis Center
09:25PM 44.0092 -90.9008 117° Southeast 455 524 27,000  Level Minneapolis Center
09:26PM 43.9750 -90.6547 101° East 466 536 27,000  Level Minneapolis Center
09:27PM 43.9547 -90.4936 100° East 465 535 27,000  Level Minneapolis Center
09:28PM 43.9200 -90.2919 103° East 461 531 27,000  Level Minneapolis Center
09:29PM 43.8653 -90.1317 115° Southeast 456 525 27,000  Level Minneapolis Center
09:30PM 43.8125 -89.9700 114° Southeast 461 531 27,000  Level Minneapolis Center
09:31PM 43.7667 -89.8361 115° Southeast 462 532 27,000  Level Minneapolis Center
09:33PM 43.7061 -89.6472 114° Southeast 461 531 27,000  Level Minneapolis Center
09:34PM 43.6514 -89.4864 115° Southeast 462 532 27,000  Level Minneapolis Center
09:35PM 43.5981 -89.3275 115° Southeast 459 528 27,000  Level Minneapolis Center
09:35PM 43.5803 -89.2742 115° Southeast 460 529 27,000  Level Chicago Center
09:36PM 43.5258 -89.1153 115° Southeast 460 529 27,000  Level Chicago Center
09:37PM 43.4719 -88.9550 115° Southeast 460 529 27,000  Level Chicago Center
09:38PM 43.4078 -88.7692 115° Southeast 463 533 27,000  Level Chicago Center
09:39PM 43.3533 -88.6119 115° Southeast 463 533 27,000  Level Chicago Center
09:40PM 43.2983 -88.4553 116° Southeast 466 536 27,000  Level Chicago Center
09:41PM 43.2439 -88.2981 115° Southeast 463 533 27,000  Level Chicago Center
09:42PM 43.1797 -88.1144 116° Southeast 459 528 27,000  Level Chicago Center
09:43PM 43.1236 -87.9564 116° Southeast 461 531 27,000  Level Chicago Center
09:44PM 43.0672 -87.7981 116° Southeast 463 533 27,000  Level Chicago Center
09:45PM 43.0117 -87.6411 116° Southeast 461 531 27,000  Level Chicago Center
09:46PM 42.9553 -87.4839 116° Southeast 461 531 27,000  Level Chicago Center
09:47PM 42.8939 -87.3125 116° Southeast 463 533 27,000 -60 Level Chicago Center
09:48PM 42.8367 -87.1569 117° Southeast 462 532 26,900 -780 Descending Chicago Center
09:49PM 42.7797 -87.0003 116° Southeast 463 533 25,500 -1,440 Descending Chicago Center
09:50PM 42.7206 -86.8419 117° Southeast 471 542 24,000 -1,740 Descending Chicago Center
09:51PM 42.6636 -86.6861 116° Southeast 467 537 22,000 -1,980 Descending Chicago Center
09:52PM 42.6075 -86.5356 117° Southeast 454 522 20,000 -1,980 Descending Chicago Center
09:53PM 42.5417 -86.3603 117° Southeast 440 506 18,000 -2,220 Descending Chicago Center
09:54PM 42.4903 -86.2244 117° Southeast 414 476 15,500 -2,460 Descending Chicago Center
09:55PM 42.4436 -86.0992 117° Southeast 376 433 13,000 -2,220 Descending Chicago Center
09:56PM 42.4006 -85.9886 118° Southeast 341 392 11,000 -1,740 Descending Chicago Center
09:57PM 42.3647 -85.8906 116° Southeast 302 348 9,500 -2,340 Descending Chicago Center
09:58PM 42.3289 -85.8000 118° Southeast 281 323 6,300 -2,700 Descending Chicago Center
09:59PM 42.3111 -85.7044 104° East 267 307 4,000 -1,920 Descending Chicago Center
10:01PM 42.3211 -85.6050 82° East 229 264 2,400 -1,560 Descending Chicago Center